sensor_id;sensor_type;location;lat;lon;timestamp;pressure;altitude;pressure_sealevel;temperature;humidity
15007;BME280;7599;50.748;13.142;2023-03-31T00:01:55;94953.25;;;11.56;64.81
15007;BME280;7599;50.748;13.142;2023-03-31T00:04:58;94937.19;;;11.58;65.07
15007;BME280;7599;50.748;13.142;2023-03-31T00:08:02;94931.63;;;11.54;64.96
15007;BME280;7599;50.748;13.142;2023-03-31T00:11:06;94928.50;;;11.57;64.77
15007;BME280;7599;50.748;13.142;2023-03-31T00:14:10;94930.34;;;11.57;65.03
15007;BME280;7599;50.748;13.142;2023-03-31T00:17:13;94930.09;;;11.58;64.86
15007;BME280;7599;50.748;13.142;2023-03-31T00:20:16;94925.88;;;11.57;64.97
15007;BME280;7599;50.748;13.142;2023-03-31T00:23:19;94923.00;;;11.59;65.07
15007;BME280;7599;50.748;13.142;2023-03-31T00:26:28;94916.13;;;11.58;64.88
15007;BME280;7599;50.748;13.142;2023-03-31T00:29:32;94915.09;;;11.59;65.13
15007;BME280;7599;50.748;13.142;2023-03-31T00:32:36;94911.91;;;11.57;64.64
15007;BME280;7599;50.748;13.142;2023-03-31T00:35:38;94904.78;;;11.57;64.98
15007;BME280;7599;50.748;13.142;2023-03-31T00:38:41;94897.16;;;11.56;64.72
15007;BME280;7599;50.748;13.142;2023-03-31T00:41:46;94892.41;;;11.58;65.17
15007;BME280;7599;50.748;13.142;2023-03-31T00:45:25;94889.00;;;11.57;64.78
15007;BME280;7599;50.748;13.142;2023-03-31T00:48:28;94868.72;;;11.58;64.89
15007;BME280;7599;50.748;13.142;2023-03-31T00:51:32;94873.19;;;11.57;64.56
15007;BME280;7599;50.748;13.142;2023-03-31T00:54:36;94867.91;;;11.57;64.92
15007;BME280;7599;50.748;13.142;2023-03-31T00:57:40;94867.38;;;11.55;65.21
15007;BME280;7599;50.748;13.142;2023-03-31T01:00:47;94854.22;;;11.55;65.03
15007;BME280;7599;50.748;13.142;2023-03-31T01:03:51;94852.13;;;11.57;64.76
15007;BME280;7599;50.748;13.142;2023-03-31T01:06:57;94848.94;;;11.55;64.63
15007;BME280;7599;50.748;13.142;2023-03-31T01:10:05;94844.22;;;11.57;64.66
15007;BME280;7599;50.748;13.142;2023-03-31T01:13:10;94839.19;;;11.56;64.90
15007;BME280;7599;50.748;13.142;2023-03-31T01:16:16;94833.13;;;11.55;64.92
15007;BME280;7599;50.748;13.142;2023-03-31T01:19:27;94830.50;;;11.55;64.95
15007;BME280;7599;50.748;13.142;2023-03-31T01:23:04;94831.53;;;11.54;64.99
15007;BME280;7599;50.748;13.142;2023-03-31T01:26:34;94827.88;;;11.55;65.14
15007;BME280;7599;50.748;13.142;2023-03-31T01:29:57;94824.19;;;11.56;65.19
15007;BME280;7599;50.748;13.142;2023-03-31T01:33:28;94815.50;;;11.56;64.87
15007;BME280;7599;50.748;13.142;2023-03-31T01:37:00;94806.78;;;11.55;64.77
15007;BME280;7599;50.748;13.142;2023-03-31T01:40:45;94800.72;;;11.55;64.96
15007;BME280;7599;50.748;13.142;2023-03-31T01:43:55;94793.38;;;11.57;64.85
15007;BME280;7599;50.748;13.142;2023-03-31T01:47:09;94789.94;;;11.56;64.89
15007;BME280;7599;50.748;13.142;2023-03-31T01:50:17;94788.09;;;11.57;64.77
15007;BME280;7599;50.748;13.142;2023-03-31T01:53:30;94787.31;;;11.56;64.84
15007;BME280;7599;50.748;13.142;2023-03-31T01:56:39;94775.97;;;11.56;64.88
15007;BME280;7599;50.748;13.142;2023-03-31T01:59:49;94775.19;;;11.55;65.05
15007;BME280;7599;50.748;13.142;2023-03-31T02:02:54;94773.84;;;11.53;65.24
15007;BME280;7599;50.748;13.142;2023-03-31T02:06:03;94766.75;;;11.53;64.73
15007;BME280;7599;50.748;13.142;2023-03-31T02:09:12;94768.34;;;11.54;64.63
15007;BME280;7599;50.748;13.142;2023-03-31T02:12:19;94767.28;;;11.55;64.80
15007;BME280;7599;50.748;13.142;2023-03-31T02:15:26;94762.81;;;11.56;65.03
15007;BME280;7599;50.748;13.142;2023-03-31T02:18:30;94765.19;;;11.57;64.56
15007;BME280;7599;50.748;13.142;2023-03-31T02:21:39;94761.75;;;11.57;64.50
15007;BME280;7599;50.748;13.142;2023-03-31T02:24:43;94757.28;;;11.57;64.60
15007;BME280;7599;50.748;13.142;2023-03-31T02:27:50;94758.09;;;11.58;64.96
15007;BME280;7599;50.748;13.142;2023-03-31T02:31:05;94753.59;;;11.58;64.82
15007;BME280;7599;50.748;13.142;2023-03-31T02:34:10;94755.19;;;11.59;64.73
15007;BME280;7599;50.748;13.142;2023-03-31T02:37:13;94747.53;;;11.58;64.78
15007;BME280;7599;50.748;13.142;2023-03-31T02:40:18;94749.13;;;11.59;64.60
15007;BME280;7599;50.748;13.142;2023-03-31T02:43:23;94739.38;;;11.59;64.80
15007;BME280;7599;50.748;13.142;2023-03-31T02:46:27;94735.16;;;11.58;64.77
15007;BME280;7599;50.748;13.142;2023-03-31T02:49:30;94728.84;;;11.59;64.84
15007;BME280;7599;50.748;13.142;2023-03-31T02:52:42;94725.19;;;11.60;64.80
15007;BME280;7599;50.748;13.142;2023-03-31T02:56:02;94714.88;;;11.59;64.87
15007;BME280;7599;50.748;13.142;2023-03-31T02:59:18;94712.25;;;11.59;64.74
15007;BME280;7599;50.748;13.142;2023-03-31T03:02:35;94714.63;;;11.60;64.72
15007;BME280;7599;50.748;13.142;2023-03-31T03:05:43;94710.16;;;11.61;64.87
15007;BME280;7599;50.748;13.142;2023-03-31T03:09:02;94704.91;;;11.61;64.61
15007;BME280;7599;50.748;13.142;2023-03-31T03:12:14;94701.97;;;11.62;64.89
15007;BME280;7599;50.748;13.142;2023-03-31T03:15:23;94691.44;;;11.62;64.83
15007;BME280;7599;50.748;13.142;2023-03-31T03:18:27;94690.69;;;11.62;64.67
15007;BME280;7599;50.748;13.142;2023-03-31T03:21:31;94685.91;;;11.64;64.78
15007;BME280;7599;50.748;13.142;2023-03-31T03:24:33;94679.84;;;11.58;64.89
15007;BME280;7599;50.748;13.142;2023-03-31T03:27:37;94682.25;;;11.60;64.67
15007;BME280;7599;50.748;13.142;2023-03-31T03:30:41;94684.63;;;11.61;64.56
15007;BME280;7599;50.748;13.142;2023-03-31T03:33:43;94671.69;;;11.60;64.58
15007;BME280;7599;50.748;13.142;2023-03-31T03:36:46;94678.28;;;11.62;64.90
15007;BME280;7599;50.748;13.142;2023-03-31T03:39:49;94674.06;;;11.61;64.97
15007;BME280;7599;50.748;13.142;2023-03-31T03:42:51;94673.00;;;11.62;64.95
15007;BME280;7599;50.748;13.142;2023-03-31T03:45:55;94661.69;;;11.62;64.77
15007;BME280;7599;50.748;13.142;2023-03-31T03:48:58;94651.16;;;11.62;64.78
15007;BME280;7599;50.748;13.142;2023-03-31T03:52:00;94655.34;;;11.63;64.87
15007;BME280;7599;50.748;13.142;2023-03-31T03:55:04;94643.25;;;11.62;64.80
15007;BME280;7599;50.748;13.142;2023-03-31T03:58:06;94640.88;;;11.60;64.67
15007;BME280;7599;50.748;13.142;2023-03-31T04:01:10;94649.28;;;11.62;64.78
15007;BME280;7599;50.748;13.142;2023-03-31T04:04:13;94645.91;;;11.62;64.81
15007;BME280;7599;50.748;13.142;2023-03-31T04:07:16;94645.09;;;11.61;64.83
15007;BME280;7599;50.748;13.142;2023-03-31T04:10:18;94642.97;;;11.63;64.47
15007;BME280;7599;50.748;13.142;2023-03-31T04:13:21;94639.56;;;11.63;64.87
15007;BME280;7599;50.748;13.142;2023-03-31T04:16:26;94636.66;;;11.64;64.99
15007;BME280;7599;50.748;13.142;2023-03-31T04:19:30;94635.06;;;11.63;65.07
15007;BME280;7599;50.748;13.142;2023-03-31T04:22:33;94619.28;;;11.63;64.80
15007;BME280;7599;50.748;13.142;2023-03-31T04:25:41;94611.38;;;11.63;64.78
15007;BME280;7599;50.748;13.142;2023-03-31T04:28:46;94612.41;;;11.62;64.85
15007;BME280;7599;50.748;13.142;2023-03-31T04:31:52;94607.94;;;11.63;64.57
15007;BME280;7599;50.748;13.142;2023-03-31T04:34:59;94601.88;;;11.62;64.93
15007;BME280;7599;50.748;13.142;2023-03-31T04:38:03;94607.16;;;11.62;64.99
15007;BME280;7599;50.748;13.142;2023-03-31T04:41:06;94602.66;;;11.63;65.07
15007;BME280;7599;50.748;13.142;2023-03-31T04:44:08;94604.50;;;11.62;65.27
15007;BME280;7599;50.748;13.142;2023-03-31T04:47:12;94604.50;;;11.62;64.66
15007;BME280;7599;50.748;13.142;2023-03-31T04:50:15;94602.66;;;11.63;64.58
15007;BME280;7599;50.748;13.142;2023-03-31T04:53:18;94598.19;;;11.63;64.88
15007;BME280;7599;50.748;13.142;2023-03-31T04:56:21;94604.25;;;11.64;64.76
15007;BME280;7599;50.748;13.142;2023-03-31T04:59:24;94590.56;;;11.62;64.71
15007;BME280;7599;50.748;13.142;2023-03-31T05:02:28;94586.06;;;11.62;64.64
15007;BME280;7599;50.748;13.142;2023-03-31T05:05:31;94580.81;;;11.62;65.18
15007;BME280;7599;50.748;13.142;2023-03-31T05:08:34;94573.44;;;11.64;64.84
15007;BME280;7599;50.748;13.142;2023-03-31T05:11:36;94571.84;;;11.63;65.07
15007;BME280;7599;50.748;13.142;2023-03-31T05:14:39;94558.69;;;11.63;64.71
15007;BME280;7599;50.748;13.142;2023-03-31T05:17:43;94557.88;;;11.63;64.79
15007;BME280;7599;50.748;13.142;2023-03-31T05:20:46;94543.94;;;11.62;64.88
15007;BME280;7599;50.748;13.142;2023-03-31T05:23:48;94538.66;;;11.62;64.92
15007;BME280;7599;50.748;13.142;2023-03-31T05:26:51;94538.66;;;11.62;65.02
15007;BME280;7599;50.748;13.142;2023-03-31T05:29:54;94531.56;;;11.63;65.08
15007;BME280;7599;50.748;13.142;2023-03-31T05:32:58;94522.84;;;11.62;65.16
15007;BME280;7599;50.748;13.142;2023-03-31T05:36:01;94519.16;;;11.63;64.87
15007;BME280;7599;50.748;13.142;2023-03-31T05:39:05;94503.09;;;11.65;65.17
15007;BME280;7599;50.748;13.142;2023-03-31T05:42:08;94500.47;;;11.65;65.17
15007;BME280;7599;50.748;13.142;2023-03-31T05:45:10;94495.47;;;11.63;64.97
15007;BME280;7599;50.748;13.142;2023-03-31T05:48:15;94499.16;;;11.62;64.77
15007;BME280;7599;50.748;13.142;2023-03-31T05:51:18;94480.97;;;11.56;65.06
15007;BME280;7599;50.748;13.142;2023-03-31T05:54:20;94473.63;;;11.58;65.09
15007;BME280;7599;50.748;13.142;2023-03-31T05:57:23;94464.91;;;11.57;64.88
15007;BME280;7599;50.748;13.142;2023-03-31T06:00:26;94460.97;;;11.60;64.95
15007;BME280;7599;50.748;13.142;2023-03-31T06:03:29;94461.78;;;11.60;64.88
15007;BME280;7599;50.748;13.142;2023-03-31T06:06:32;94455.44;;;11.61;65.36
15007;BME280;7599;50.748;13.142;2023-03-31T06:09:38;94451.22;;;11.60;65.13
15007;BME280;7599;50.748;13.142;2023-03-31T06:12:40;94442.28;;;11.61;65.17
15007;BME280;7599;50.748;13.142;2023-03-31T06:15:51;94435.94;;;11.62;65.34
15007;BME280;7599;50.748;13.142;2023-03-31T06:18:55;94444.91;;;11.61;65.36
15007;BME280;7599;50.748;13.142;2023-03-31T06:21:58;94439.66;;;11.61;65.40
15007;BME280;7599;50.748;13.142;2023-03-31T06:25:01;94433.84;;;11.59;65.46
15007;BME280;7599;50.748;13.142;2023-03-31T06:28:03;94439.34;;;11.63;65.38
15007;BME280;7599;50.748;13.142;2023-03-31T06:31:09;94437.81;;;11.62;65.22
15007;BME280;7599;50.748;13.142;2023-03-31T06:34:14;94440.44;;;11.62;65.45
15007;BME280;7599;50.748;13.142;2023-03-31T06:37:19;94443.06;;;11.62;65.21
15007;BME280;7599;50.748;13.142;2023-03-31T06:40:22;94441.19;;;11.62;65.39
15007;BME280;7599;50.748;13.142;2023-03-31T06:43:25;94441.19;;;11.62;65.31
15007;BME280;7599;50.748;13.142;2023-03-31T06:46:28;94437.81;;;11.62;65.22
15007;BME280;7599;50.748;13.142;2023-03-31T06:49:32;94430.66;;;11.62;64.90
15007;BME280;7599;50.748;13.142;2023-03-31T06:52:35;94429.91;;;11.62;65.03
15007;BME280;7599;50.748;13.142;2023-03-31T06:55:37;94428.81;;;11.63;65.29
15007;BME280;7599;50.748;13.142;2023-03-31T06:58:40;94414.84;;;11.62;64.98
15007;BME280;7599;50.748;13.142;2023-03-31T07:01:43;94415.66;;;11.63;64.93
15007;BME280;7599;50.748;13.142;2023-03-31T07:04:47;94420.13;;;11.62;65.04
15007;BME280;7599;50.748;13.142;2023-03-31T07:07:50;94412.22;;;11.62;65.47
15007;BME280;7599;50.748;13.142;2023-03-31T07:10:54;94409.59;;;11.62;65.22
15007;BME280;7599;50.748;13.142;2023-03-31T07:13:58;94396.41;;;11.62;65.32
15007;BME280;7599;50.748;13.142;2023-03-31T07:17:00;94389.31;;;11.63;65.32
15007;BME280;7599;50.748;13.142;2023-03-31T07:20:06;94390.63;;;11.65;65.09
15007;BME280;7599;50.748;13.142;2023-03-31T07:23:12;94383.78;;;11.64;65.01
15007;BME280;7599;50.748;13.142;2023-03-31T07:26:15;94366.13;;;11.65;65.21
15007;BME280;7599;50.748;13.142;2023-03-31T07:29:17;94369.28;;;11.67;65.29
15007;BME280;7599;50.748;13.142;2023-03-31T07:32:20;94363.50;;;11.65;65.12
15007;BME280;7599;50.748;13.142;2023-03-31T07:35:26;94356.38;;;11.65;65.24
15007;BME280;7599;50.748;13.142;2023-03-31T07:38:31;94363.50;;;11.65;65.36
15007;BME280;7599;50.748;13.142;2023-03-31T07:41:34;94375.88;;;11.64;65.29
15007;BME280;7599;50.748;13.142;2023-03-31T07:44:37;94370.09;;;11.62;65.61
15007;BME280;7599;50.748;13.142;2023-03-31T07:47:40;94369.03;;;11.63;65.69
15007;BME280;7599;50.748;13.142;2023-03-31T07:50:44;94371.66;;;11.63;65.27
15007;BME280;7599;50.748;13.142;2023-03-31T07:53:47;94373.25;;;11.64;65.17
15007;BME280;7599;50.748;13.142;2023-03-31T07:56:52;94375.09;;;11.64;65.25
15007;BME280;7599;50.748;13.142;2023-03-31T07:59:55;94377.72;;;11.64;65.51
15007;BME280;7599;50.748;13.142;2023-03-31T08:02:58;94375.09;;;11.64;65.54
15007;BME280;7599;50.748;13.142;2023-03-31T08:06:02;94376.94;;;11.63;65.50
15007;BME280;7599;50.748;13.142;2023-03-31T08:09:05;94384.84;;;11.63;65.10
15007;BME280;7599;50.748;13.142;2023-03-31T08:12:08;94387.47;;;11.63;65.38
15007;BME280;7599;50.748;13.142;2023-03-31T08:15:11;94377.97;;;11.62;65.08
15007;BME280;7599;50.748;13.142;2023-03-31T08:18:13;94377.72;;;11.64;65.18
15007;BME280;7599;50.748;13.142;2023-03-31T08:21:18;94371.66;;;11.63;65.29
15007;BME280;7599;50.748;13.142;2023-03-31T08:24:25;94364.56;;;11.64;65.50
15007;BME280;7599;50.748;13.142;2023-03-31T08:27:27;94352.44;;;11.63;65.53
15007;BME280;7599;50.748;13.142;2023-03-31T08:30:30;94344.53;;;11.63;65.34
15007;BME280;7599;50.748;13.142;2023-03-31T08:33:33;94343.75;;;11.62;65.19
15007;BME280;7599;50.748;13.142;2023-03-31T08:36:37;94337.41;;;11.63;65.19
15007;BME280;7599;50.748;13.142;2023-03-31T08:39:39;94342.69;;;11.63;65.20
15007;BME280;7599;50.748;13.142;2023-03-31T08:42:43;94340.06;;;11.63;65.29
15007;BME280;7599;50.748;13.142;2023-03-31T08:45:48;94329.53;;;11.63;65.25
15007;BME280;7599;50.748;13.142;2023-03-31T08:48:53;94320.81;;;11.63;65.21
15007;BME280;7599;50.748;13.142;2023-03-31T08:52:00;94321.63;;;11.63;65.39
15007;BME280;7599;50.748;13.142;2023-03-31T08:55:09;94318.19;;;11.63;65.28
15007;BME280;7599;50.748;13.142;2023-03-31T08:58:20;94303.97;;;11.64;65.29
15007;BME280;7599;50.748;13.142;2023-03-31T09:01:32;94288.16;;;11.64;65.38
15007;BME280;7599;50.748;13.142;2023-03-31T09:05:02;94287.38;;;11.63;65.33
15007;BME280;7599;50.748;13.142;2023-03-31T09:08:13;94282.09;;;11.63;65.27
15007;BME280;7599;50.748;13.142;2023-03-31T09:11:27;94277.63;;;11.64;65.26
15007;BME280;7599;50.748;13.142;2023-03-31T09:14:35;94272.38;;;11.64;65.30
15007;BME280;7599;50.748;13.142;2023-03-31T09:17:40;94259.97;;;11.64;65.36
15007;BME280;7599;50.748;13.142;2023-03-31T09:20:47;94264.47;;;11.64;65.42
15007;BME280;7599;50.748;13.142;2023-03-31T09:23:55;94270.50;;;11.64;65.56
15007;BME280;7599;50.748;13.142;2023-03-31T09:27:01;94267.88;;;11.64;65.32
15007;BME280;7599;50.748;13.142;2023-03-31T09:30:12;94259.19;;;11.64;65.28
15007;BME280;7599;50.748;13.142;2023-03-31T09:33:18;94253.91;;;11.64;65.64
15007;BME280;7599;50.748;13.142;2023-03-31T09:36:21;94246.81;;;11.64;65.70
15007;BME280;7599;50.748;13.142;2023-03-31T09:39:25;94243.13;;;11.65;65.45
15007;BME280;7599;50.748;13.142;2023-03-31T09:42:29;94245.75;;;11.65;65.49
15007;BME280;7599;50.748;13.142;2023-03-31T09:45:33;94249.44;;;11.64;65.03
15007;BME280;7599;50.748;13.142;2023-03-31T09:48:37;94244.69;;;11.67;65.03
15007;BME280;7599;50.748;13.142;2023-03-31T09:51:43;94235.22;;;11.65;65.37
15007;BME280;7599;50.748;13.142;2023-03-31T09:54:52;94229.94;;;11.65;65.42
15007;BME280;7599;50.748;13.142;2023-03-31T09:57:55;94229.94;;;11.65;65.49
15007;BME280;7599;50.748;13.142;2023-03-31T10:01:04;94216.78;;;11.65;65.31
15007;BME280;7599;50.748;13.142;2023-03-31T10:04:17;94216.50;;;11.67;65.35
15007;BME280;7599;50.748;13.142;2023-03-31T10:07:22;94214.94;;;11.66;65.08
15007;BME280;7599;50.748;13.142;2023-03-31T10:10:31;94200.97;;;11.65;65.25
15007;BME280;7599;50.748;13.142;2023-03-31T10:13:37;94196.50;;;11.66;65.57
15007;BME280;7599;50.748;13.142;2023-03-31T10:16:44;94197.28;;;11.67;65.50
15007;BME280;7599;50.748;13.142;2023-03-31T10:19:50;94192.81;;;11.67;65.24
15007;BME280;7599;50.748;13.142;2023-03-31T10:22:52;94180.69;;;11.66;65.24
15007;BME280;7599;50.748;13.142;2023-03-31T10:25:57;94182.53;;;11.65;65.50
15007;BME280;7599;50.748;13.142;2023-03-31T10:29:00;94185.97;;;11.66;65.37
15007;BME280;7599;50.748;13.142;2023-03-31T10:32:07;94175.69;;;11.70;65.45
15007;BME280;7599;50.748;13.142;2023-03-31T10:35:21;94175.41;;;11.76;66.36
15007;BME280;7599;50.748;13.142;2023-03-31T10:38:26;94173.28;;;11.78;66.47
15007;BME280;7599;50.748;13.142;2023-03-31T10:41:31;94160.91;;;11.74;66.37
15007;BME280;7599;50.748;13.142;2023-03-31T10:44:36;94164.88;;;11.71;65.61
15007;BME280;7599;50.748;13.142;2023-03-31T10:47:39;94165.94;;;11.70;65.85
15007;BME280;7599;50.748;13.142;2023-03-31T10:50:42;94159.34;;;11.68;65.65
15007;BME280;7599;50.748;13.142;2023-03-31T10:53:46;94156.72;;;11.68;65.74
15007;BME280;7599;50.748;13.142;2023-03-31T10:56:52;94151.47;;;11.68;66.05
15007;BME280;7599;50.748;13.142;2023-03-31T11:00:05;94144.59;;;11.67;66.06
15007;BME280;7599;50.748;13.142;2023-03-31T11:03:33;94121.16;;;11.65;65.79
15007;BME280;7599;50.748;13.142;2023-03-31T11:06:48;94098.25;;;11.65;65.92
15007;BME280;7599;50.748;13.142;2023-03-31T11:10:04;94089.56;;;11.65;65.83
15007;BME280;7599;50.748;13.142;2023-03-31T11:13:17;94094.03;;;11.64;65.88
15007;BME280;7599;50.748;13.142;2023-03-31T11:16:31;94096.69;;;11.64;65.62
15007;BME280;7599;50.748;13.142;2023-03-31T11:19:41;94094.03;;;11.64;66.05
15007;BME280;7599;50.748;13.142;2023-03-31T11:22:53;94091.41;;;11.64;65.87
15007;BME280;7599;50.748;13.142;2023-03-31T11:26:03;94084.28;;;11.65;65.86
15007;BME280;7599;50.748;13.142;2023-03-31T11:29:19;94083.50;;;11.64;65.95
15007;BME280;7599;50.748;13.142;2023-03-31T11:32:38;94071.41;;;11.63;65.78
15007;BME280;7599;50.748;13.142;2023-03-31T11:35:55;94055.31;;;11.65;66.20
15007;BME280;7599;50.748;13.142;2023-03-31T11:39:15;94051.13;;;11.64;65.75
15007;BME280;7599;50.748;13.142;2023-03-31T11:42:26;94044.28;;;11.63;65.52
15007;BME280;7599;50.748;13.142;2023-03-31T11:45:34;94039.78;;;11.63;65.82
15007;BME280;7599;50.748;13.142;2023-03-31T11:48:43;94031.09;;;11.63;65.84
15007;BME280;7599;50.748;13.142;2023-03-31T11:51:51;94051.91;;;11.64;65.87
15007;BME280;7599;50.748;13.142;2023-03-31T11:54:58;94029.25;;;11.63;65.88
15007;BME280;7599;50.748;13.142;2023-03-31T11:58:06;94030.84;;;11.64;65.69
15007;BME280;7599;50.748;13.142;2023-03-31T12:01:19;94020.28;;;11.64;65.81
15007;BME280;7599;50.748;13.142;2023-03-31T12:04:31;94024.78;;;11.64;65.68
15007;BME280;7599;50.748;13.142;2023-03-31T12:07:38;94016.88;;;11.64;65.82
15007;BME280;7599;50.748;13.142;2023-03-31T12:10:45;94022.94;;;11.64;65.90
15007;BME280;7599;50.748;13.142;2023-03-31T12:13:56;94004.50;;;11.64;65.83
15007;BME280;7599;50.748;13.142;2023-03-31T12:17:04;94012.41;;;11.64;65.95
15007;BME280;7599;50.748;13.142;2023-03-31T12:20:18;94004.50;;;11.64;66.02
15007;BME280;7599;50.748;13.142;2023-03-31T12:23:25;94005.56;;;11.63;65.68
15007;BME280;7599;50.748;13.142;2023-03-31T12:26:41;93995.53;;;11.65;65.80
15007;BME280;7599;50.748;13.142;2023-03-31T12:29:53;93999.22;;;11.64;65.94
15007;BME280;7599;50.748;13.142;2023-03-31T12:33:03;93990.25;;;11.65;65.75
15007;BME280;7599;50.748;13.142;2023-03-31T12:36:20;93978.16;;;11.64;65.76
15007;BME280;7599;50.748;13.142;2023-03-31T12:39:35;93984.22;;;11.65;65.79
15007;BME280;7599;50.748;13.142;2023-03-31T12:42:49;93972.09;;;11.64;65.65
15007;BME280;7599;50.748;13.142;2023-03-31T12:46:06;93966.84;;;11.64;65.69
15007;BME280;7599;50.748;13.142;2023-03-31T12:49:22;93966.84;;;11.64;66.10
15007;BME280;7599;50.748;13.142;2023-03-31T12:52:35;93960.78;;;11.63;65.78
15007;BME280;7599;50.748;13.142;2023-03-31T12:55:44;93960.78;;;11.63;65.70
15007;BME280;7599;50.748;13.142;2023-03-31T12:58:48;93958.94;;;11.64;65.91
15007;BME280;7599;50.748;13.142;2023-03-31T13:05:45;93966.84;;;11.64;65.82
15007;BME280;7599;50.748;13.142;2023-03-31T13:08:56;93956.28;;;11.64;65.76
15007;BME280;7599;50.748;13.142;2023-03-31T13:12:05;93960.50;;;11.65;65.92
15007;BME280;7599;50.748;13.142;2023-03-31T13:15:13;93956.28;;;11.64;65.80
15007;BME280;7599;50.748;13.142;2023-03-31T13:18:18;93968.41;;;11.65;65.96
15007;BME280;7599;50.748;13.142;2023-03-31T13:21:23;93966.56;;;11.65;65.61
15007;BME280;7599;50.748;13.142;2023-03-31T13:24:28;93965.00;;;11.64;65.77
15007;BME280;7599;50.748;13.142;2023-03-31T13:27:32;93963.94;;;11.65;65.66
15007;BME280;7599;50.748;13.142;2023-03-31T13:30:47;93968.41;;;11.65;65.66
15007;BME280;7599;50.748;13.142;2023-03-31T13:33:53;93957.09;;;11.64;66.00
15007;BME280;7599;50.748;13.142;2023-03-31T13:37:11;93953.38;;;11.65;66.01
15007;BME280;7599;50.748;13.142;2023-03-31T13:40:25;93957.88;;;11.65;65.80
15007;BME280;7599;50.748;13.142;2023-03-31T13:43:58;93957.09;;;11.64;65.79
15007;BME280;7599;50.748;13.142;2023-03-31T13:47:35;93948.13;;;11.65;65.81
15007;BME280;7599;50.748;13.142;2023-03-31T13:50:52;93945.50;;;11.65;65.81
15007;BME280;7599;50.748;13.142;2023-03-31T13:54:14;93948.13;;;11.65;65.78
15007;BME280;7599;50.748;13.142;2023-03-31T13:57:39;93934.94;;;11.65;65.92
15007;BME280;7599;50.748;13.142;2023-03-31T14:01:04;93937.59;;;11.65;66.18
15007;BME280;7599;50.748;13.142;2023-03-31T14:04:26;93920.72;;;11.67;65.68
15007;BME280;7599;50.748;13.142;2023-03-31T14:07:33;93924.94;;;11.68;66.04
15007;BME280;7599;50.748;13.142;2023-03-31T14:10:40;93924.41;;;11.65;65.81
15007;BME280;7599;50.748;13.142;2023-03-31T14:13:43;93916.50;;;11.65;65.88
15007;BME280;7599;50.748;13.142;2023-03-31T14:16:50;93905.97;;;11.65;66.13
15007;BME280;7599;50.748;13.142;2023-03-31T14:20:08;93914.41;;;11.68;65.90
15007;BME280;7599;50.748;13.142;2023-03-31T14:23:32;93911.75;;;11.68;65.70
15007;BME280;7599;50.748;13.142;2023-03-31T14:26:48;93904.66;;;11.68;65.57
15007;BME280;7599;50.748;13.142;2023-03-31T14:29:59;93895.97;;;11.68;65.64
15007;BME280;7599;50.748;13.142;2023-03-31T14:33:15;93880.94;;;11.68;66.07
15007;BME280;7599;50.748;13.142;2023-03-31T14:36:27;93888.84;;;11.68;66.20
15007;BME280;7599;50.748;13.142;2023-03-31T14:39:36;93893.31;;;11.68;66.06
15007;BME280;7599;50.748;13.142;2023-03-31T14:42:42;93894.13;;;11.68;65.92
15007;BME280;7599;50.748;13.142;2023-03-31T14:45:56;93892.25;;;11.69;65.88
15007;BME280;7599;50.748;13.142;2023-03-31T14:49:05;93888.56;;;11.70;65.95
15007;BME280;7599;50.748;13.142;2023-03-31T14:52:14;93893.84;;;11.70;66.12
15007;BME280;7599;50.748;13.142;2023-03-31T14:55:21;93895.41;;;11.71;65.85
15007;BME280;7599;50.748;13.142;2023-03-31T14:58:31;93896.47;;;11.70;65.79
15007;BME280;7599;50.748;13.142;2023-03-31T15:01:37;93907.78;;;11.70;65.77
15007;BME280;7599;50.748;13.142;2023-03-31T15:04:40;93898.31;;;11.69;66.07
15007;BME280;7599;50.748;13.142;2023-03-31T15:07:46;93901.47;;;11.71;66.16
15007;BME280;7599;50.748;13.142;2023-03-31T15:10:51;93900.94;;;11.69;66.02
15007;BME280;7599;50.748;13.142;2023-03-31T15:14:13;93897.53;;;11.69;65.79
15007;BME280;7599;50.748;13.142;2023-03-31T15:17:18;93889.63;;;11.69;65.79
15007;BME280;7599;50.748;13.142;2023-03-31T15:20:28;93882.53;;;11.69;66.05
15007;BME280;7599;50.748;13.142;2023-03-31T15:23:31;93882.53;;;11.69;65.85
15007;BME280;7599;50.748;13.142;2023-03-31T15:26:37;93875.69;;;11.68;66.24
15007;BME280;7599;50.748;13.142;2023-03-31T15:29:46;93885.16;;;11.69;66.13
15007;BME280;7599;50.748;13.142;2023-03-31T15:32:50;93880.66;;;11.70;66.01
15007;BME280;7599;50.748;13.142;2023-03-31T15:36:05;93888.84;;;11.68;66.38
15007;BME280;7599;50.748;13.142;2023-03-31T15:39:10;93894.91;;;11.69;66.14
15007;BME280;7599;50.748;13.142;2023-03-31T15:42:14;93885.16;;;11.69;65.99
15007;BME280;7599;50.748;13.142;2023-03-31T15:45:36;93884.09;;;11.70;66.32
15007;BME280;7599;50.748;13.142;2023-03-31T15:48:48;93873.56;;;11.70;65.93
15007;BME280;7599;50.748;13.142;2023-03-31T15:51:53;93872.50;;;11.71;66.10
15007;BME280;7599;50.748;13.142;2023-03-31T15:54:56;93867.50;;;11.70;66.28
15007;BME280;7599;50.748;13.142;2023-03-31T15:58:00;93860.38;;;11.70;66.11
15007;BME280;7599;50.748;13.142;2023-03-31T16:01:05;93860.09;;;11.72;66.33
15007;BME280;7599;50.748;13.142;2023-03-31T16:04:09;93861.69;;;11.73;66.11
15007;BME280;7599;50.748;13.142;2023-03-31T16:07:15;93870.06;;;11.75;66.57
15007;BME280;7599;50.748;13.142;2023-03-31T16:10:20;93870.38;;;11.73;66.35
15007;BME280;7599;50.748;13.142;2023-03-31T16:13:23;93876.44;;;11.74;66.38
15007;BME280;7599;50.748;13.142;2023-03-31T16:16:28;93879.34;;;11.72;66.63
15007;BME280;7599;50.748;13.142;2023-03-31T16:19:40;93887.22;;;11.72;66.27
15007;BME280;7599;50.748;13.142;2023-03-31T16:22:46;93886.44;;;11.72;66.46
15007;BME280;7599;50.748;13.142;2023-03-31T16:25:51;93884.59;;;11.72;66.25
15007;BME280;7599;50.748;13.142;2023-03-31T16:28:55;93895.91;;;11.73;66.65
15007;BME280;7599;50.748;13.142;2023-03-31T16:32:09;93892.22;;;11.74;66.65
15007;BME280;7599;50.748;13.142;2023-03-31T16:35:11;93892.22;;;11.74;66.62
15007;BME280;7599;50.748;13.142;2023-03-31T16:38:14;93888.81;;;11.73;66.34